sensor_id;sensor_type;location;lat;lon;timestamp;P1;durP1;ratioP1;P2;durP2;ratioP2
3050;SDS011;1535;51.098;6.414;2023-03-29T00:02:00;14.73;;;13.10;;
3050;SDS011;1535;51.098;6.414;2023-03-29T00:04:27;14.60;;;13.23;;
3050;SDS011;1535;51.098;6.414;2023-03-29T00:06:53;14.60;;;13.30;;
3050;SDS011;1535;51.098;6.414;2023-03-29T00:09:20;15.03;;;13.23;;
3050;SDS011;1535;51.098;6.414;2023-03-29T00:11:50;14.23;;;13.00;;
3050;SDS011;1535;51.098;6.414;2023-03-29T00:14:17;16.10;;;13.00;;
3050;SDS011;1535;51.098;6.414;2023-03-29T00:16:44;14.57;;;13.40;;
3050;SDS011;1535;51.098;6.414;2023-03-29T00:19:13;13.43;;;12.43;;
3050;SDS011;1535;51.098;6.414;2023-03-29T00:21:39;18.80;;;13.13;;
3050;SDS011;1535;51.098;6.414;2023-03-29T00:24:06;13.90;;;12.50;;
3050;SDS011;1535;51.098;6.414;2023-03-29T00:26:33;13.60;;;12.60;;
3050;SDS011;1535;51.098;6.414;2023-03-29T00:29:00;13.53;;;12.33;;
3050;SDS011;1535;51.098;6.414;2023-03-29T00:31:27;14.93;;;12.70;;
3050;SDS011;1535;51.098;6.414;2023-03-29T00:33:54;13.30;;;12.10;;
3050;SDS011;1535;51.098;6.414;2023-03-29T00:36:22;13.67;;;12.27;;
3050;SDS011;1535;51.098;6.414;2023-03-29T00:38:49;13.33;;;11.90;;
3050;SDS011;1535;51.098;6.414;2023-03-29T00:41:16;14.10;;;12.10;;
3050;SDS011;1535;51.098;6.414;2023-03-29T00:43:52;13.20;;;11.90;;
3050;SDS011;1535;51.098;6.414;2023-03-29T00:46:22;12.33;;;10.90;;
3050;SDS011;1535;51.098;6.414;2023-03-29T00:48:49;13.10;;;11.80;;
3050;SDS011;1535;51.098;6.414;2023-03-29T00:51:18;11.90;;;10.90;;
3050;SDS011;1535;51.098;6.414;2023-03-29T00:53:49;13.07;;;11.37;;
3050;SDS011;1535;51.098;6.414;2023-03-29T00:56:20;15.97;;;13.00;;
3050;SDS011;1535;51.098;6.414;2023-03-29T00:58:50;11.77;;;10.67;;
3050;SDS011;1535;51.098;6.414;2023-03-29T01:01:23;12.10;;;10.87;;
3050;SDS011;1535;51.098;6.414;2023-03-29T01:03:55;10.50;;;9.70;;
3050;SDS011;1535;51.098;6.414;2023-03-29T01:06:27;15.27;;;11.13;;
3050;SDS011;1535;51.098;6.414;2023-03-29T01:09:00;11.93;;;10.57;;
3050;SDS011;1535;51.098;6.414;2023-03-29T01:11:33;11.30;;;10.40;;
3050;SDS011;1535;51.098;6.414;2023-03-29T01:14:04;11.27;;;10.37;;
3050;SDS011;1535;51.098;6.414;2023-03-29T01:16:34;16.10;;;11.23;;
3050;SDS011;1535;51.098;6.414;2023-03-29T01:19:03;15.37;;;10.10;;
3050;SDS011;1535;51.098;6.414;2023-03-29T01:21:33;10.57;;;9.77;;
3050;SDS011;1535;51.098;6.414;2023-03-29T01:24:11;10.63;;;9.83;;
3050;SDS011;1535;51.098;6.414;2023-03-29T01:26:56;10.93;;;10.03;;
3050;SDS011;1535;51.098;6.414;2023-03-29T01:29:31;12.83;;;10.47;;
3050;SDS011;1535;51.098;6.414;2023-03-29T01:32:03;11.20;;;10.13;;
3050;SDS011;1535;51.098;6.414;2023-03-29T01:34:35;18.63;;;10.10;;
3050;SDS011;1535;51.098;6.414;2023-03-29T01:37:07;12.30;;;11.20;;
3050;SDS011;1535;51.098;6.414;2023-03-29T01:39:41;11.43;;;10.23;;
3050;SDS011;1535;51.098;6.414;2023-03-29T01:42:13;11.23;;;10.10;;
3050;SDS011;1535;51.098;6.414;2023-03-29T01:44:50;12.20;;;11.10;;
3050;SDS011;1535;51.098;6.414;2023-03-29T01:47:25;10.83;;;9.83;;
3050;SDS011;1535;51.098;6.414;2023-03-29T01:49:57;13.00;;;10.70;;
3050;SDS011;1535;51.098;6.414;2023-03-29T01:52:30;12.03;;;10.80;;
3050;SDS011;1535;51.098;6.414;2023-03-29T01:55:02;11.03;;;10.23;;
3050;SDS011;1535;51.098;6.414;2023-03-29T01:57:32;11.20;;;10.33;;
3050;SDS011;1535;51.098;6.414;2023-03-29T02:00:02;12.93;;;10.70;;
3050;SDS011;1535;51.098;6.414;2023-03-29T02:02:35;11.20;;;10.20;;
3050;SDS011;1535;51.098;6.414;2023-03-29T02:05:04;11.33;;;10.33;;
3050;SDS011;1535;51.098;6.414;2023-03-29T02:07:33;11.27;;;10.13;;
3050;SDS011;1535;51.098;6.414;2023-03-29T02:10:05;11.57;;;10.77;;
3050;SDS011;1535;51.098;6.414;2023-03-29T02:12:35;12.60;;;11.63;;
3050;SDS011;1535;51.098;6.414;2023-03-29T02:15:04;14.10;;;12.07;;
3050;SDS011;1535;51.098;6.414;2023-03-29T02:17:36;12.53;;;11.23;;
3050;SDS011;1535;51.098;6.414;2023-03-29T02:20:04;16.40;;;11.13;;
3050;SDS011;1535;51.098;6.414;2023-03-29T02:22:39;11.47;;;10.60;;
3050;SDS011;1535;51.098;6.414;2023-03-29T02:25:10;12.03;;;11.13;;
3050;SDS011;1535;51.098;6.414;2023-03-29T02:27:37;12.57;;;11.50;;
3050;SDS011;1535;51.098;6.414;2023-03-29T02:30:06;15.90;;;12.17;;
3050;SDS011;1535;51.098;6.414;2023-03-29T02:32:37;11.83;;;10.90;;
3050;SDS011;1535;51.098;6.414;2023-03-29T02:35:13;12.80;;;11.80;;
3050;SDS011;1535;51.098;6.414;2023-03-29T02:37:45;11.93;;;11.17;;
3050;SDS011;1535;51.098;6.414;2023-03-29T02:40:15;13.13;;;12.03;;
3050;SDS011;1535;51.098;6.414;2023-03-29T02:42:45;16.20;;;12.47;;
3050;SDS011;1535;51.098;6.414;2023-03-29T02:45:15;12.20;;;11.17;;
3050;SDS011;1535;51.098;6.414;2023-03-29T02:47:45;13.13;;;11.80;;
3050;SDS011;1535;51.098;6.414;2023-03-29T02:50:15;12.17;;;11.37;;
3050;SDS011;1535;51.098;6.414;2023-03-29T02:52:44;13.40;;;12.50;;
3050;SDS011;1535;51.098;6.414;2023-03-29T02:55:16;12.17;;;11.37;;
3050;SDS011;1535;51.098;6.414;2023-03-29T02:57:45;13.30;;;12.10;;
3050;SDS011;1535;51.098;6.414;2023-03-29T03:00:12;12.70;;;11.80;;
3050;SDS011;1535;51.098;6.414;2023-03-29T03:02:42;14.47;;;12.87;;
3050;SDS011;1535;51.098;6.414;2023-03-29T03:05:10;16.00;;;12.50;;
3050;SDS011;1535;51.098;6.414;2023-03-29T03:07:37;11.83;;;11.03;;
3050;SDS011;1535;51.098;6.414;2023-03-29T03:10:05;12.43;;;11.40;;
3050;SDS011;1535;51.098;6.414;2023-03-29T03:12:32;12.33;;;11.43;;
3050;SDS011;1535;51.098;6.414;2023-03-29T03:15:01;12.67;;;11.87;;
3050;SDS011;1535;51.098;6.414;2023-03-29T03:17:31;11.90;;;11.00;;
3050;SDS011;1535;51.098;6.414;2023-03-29T03:19:58;12.50;;;11.50;;
3050;SDS011;1535;51.098;6.414;2023-03-29T03:22:24;11.47;;;10.67;;
3050;SDS011;1535;51.098;6.414;2023-03-29T03:24:52;12.53;;;11.57;;
3050;SDS011;1535;51.098;6.414;2023-03-29T03:27:19;12.30;;;11.33;;
3050;SDS011;1535;51.098;6.414;2023-03-29T03:29:47;12.17;;;11.17;;
3050;SDS011;1535;51.098;6.414;2023-03-29T03:32:14;11.17;;;10.47;;
3050;SDS011;1535;51.098;6.414;2023-03-29T03:34:43;11.67;;;10.93;;
3050;SDS011;1535;51.098;6.414;2023-03-29T03:37:09;13.10;;;12.03;;
3050;SDS011;1535;51.098;6.414;2023-03-29T03:39:37;12.17;;;11.40;;
3050;SDS011;1535;51.098;6.414;2023-03-29T03:42:05;12.50;;;11.53;;
3050;SDS011;1535;51.098;6.414;2023-03-29T03:44:32;12.23;;;11.30;;
3050;SDS011;1535;51.098;6.414;2023-03-29T03:47:00;12.10;;;11.00;;
3050;SDS011;1535;51.098;6.414;2023-03-29T03:49:27;12.83;;;11.80;;
3050;SDS011;1535;51.098;6.414;2023-03-29T03:51:55;12.60;;;11.50;;
3050;SDS011;1535;51.098;6.414;2023-03-29T03:54:22;16.67;;;12.10;;
3050;SDS011;1535;51.098;6.414;2023-03-29T03:56:49;13.87;;;12.70;;
3050;SDS011;1535;51.098;6.414;2023-03-29T03:59:16;17.00;;;11.87;;
3050;SDS011;1535;51.098;6.414;2023-03-29T04:01:43;13.30;;;12.30;;
3050;SDS011;1535;51.098;6.414;2023-03-29T04:04:10;13.60;;;12.47;;
3050;SDS011;1535;51.098;6.414;2023-03-29T04:06:37;13.90;;;12.53;;
3050;SDS011;1535;51.098;6.414;2023-03-29T04:09:06;13.27;;;12.33;;
3050;SDS011;1535;51.098;6.414;2023-03-29T04:11:35;14.63;;;13.50;;
3050;SDS011;1535;51.098;6.414;2023-03-29T04:14:02;14.23;;;12.60;;
3050;SDS011;1535;51.098;6.414;2023-03-29T04:16:29;13.57;;;12.53;;
3050;SDS011;1535;51.098;6.414;2023-03-29T04:18:56;12.83;;;11.90;;
3050;SDS011;1535;51.098;6.414;2023-03-29T04:21:23;13.83;;;12.53;;
3050;SDS011;1535;51.098;6.414;2023-03-29T04:23:50;13.20;;;12.30;;
3050;SDS011;1535;51.098;6.414;2023-03-29T04:26:18;14.77;;;12.80;;
3050;SDS011;1535;51.098;6.414;2023-03-29T04:28:46;13.03;;;11.97;;
3050;SDS011;1535;51.098;6.414;2023-03-29T04:31:14;13.83;;;12.60;;
3050;SDS011;1535;51.098;6.414;2023-03-29T04:33:40;17.97;;;12.57;;
3050;SDS011;1535;51.098;6.414;2023-03-29T04:36:10;14.97;;;13.20;;
3050;SDS011;1535;51.098;6.414;2023-03-29T04:38:37;14.70;;;13.33;;
3050;SDS011;1535;51.098;6.414;2023-03-29T04:41:06;16.60;;;12.80;;
3050;SDS011;1535;51.098;6.414;2023-03-29T04:43:35;15.47;;;12.50;;
3050;SDS011;1535;51.098;6.414;2023-03-29T04:46:02;14.80;;;12.57;;
3050;SDS011;1535;51.098;6.414;2023-03-29T04:48:31;15.30;;;12.20;;
3050;SDS011;1535;51.098;6.414;2023-03-29T04:50:58;16.50;;;12.47;;
3050;SDS011;1535;51.098;6.414;2023-03-29T04:53:25;13.90;;;12.60;;
3050;SDS011;1535;51.098;6.414;2023-03-29T04:55:52;13.10;;;11.87;;
3050;SDS011;1535;51.098;6.414;2023-03-29T04:58:19;13.90;;;12.23;;
3050;SDS011;1535;51.098;6.414;2023-03-29T05:00:48;14.03;;;12.67;;
3050;SDS011;1535;51.098;6.414;2023-03-29T05:03:15;14.43;;;12.97;;
3050;SDS011;1535;51.098;6.414;2023-03-29T05:05:43;14.20;;;12.73;;
3050;SDS011;1535;51.098;6.414;2023-03-29T05:08:10;14.20;;;12.70;;
3050;SDS011;1535;51.098;6.414;2023-03-29T05:10:40;13.97;;;12.50;;
3050;SDS011;1535;51.098;6.414;2023-03-29T05:13:07;14.30;;;13.30;;
3050;SDS011;1535;51.098;6.414;2023-03-29T05:15:34;12.93;;;12.13;;
3050;SDS011;1535;51.098;6.414;2023-03-29T05:18:02;13.80;;;12.60;;
3050;SDS011;1535;51.098;6.414;2023-03-29T05:20:29;15.20;;;11.90;;
3050;SDS011;1535;51.098;6.414;2023-03-29T05:22:56;13.73;;;12.53;;
3050;SDS011;1535;51.098;6.414;2023-03-29T05:25:23;14.23;;;12.80;;
3050;SDS011;1535;51.098;6.414;2023-03-29T05:27:51;14.57;;;12.43;;
3050;SDS011;1535;51.098;6.414;2023-03-29T05:30:18;13.80;;;12.73;;
3050;SDS011;1535;51.098;6.414;2023-03-29T05:32:44;13.73;;;12.20;;
3050;SDS011;1535;51.098;6.414;2023-03-29T05:35:13;15.37;;;13.03;;
3050;SDS011;1535;51.098;6.414;2023-03-29T05:37:40;13.70;;;12.60;;
3050;SDS011;1535;51.098;6.414;2023-03-29T05:40:08;17.87;;;12.70;;
3050;SDS011;1535;51.098;6.414;2023-03-29T05:42:37;14.10;;;13.07;;
3050;SDS011;1535;51.098;6.414;2023-03-29T05:45:04;15.80;;;12.67;;
3050;SDS011;1535;51.098;6.414;2023-03-29T05:47:32;13.83;;;12.30;;
3050;SDS011;1535;51.098;6.414;2023-03-29T05:49:58;14.30;;;12.87;;
3050;SDS011;1535;51.098;6.414;2023-03-29T05:52:27;14.30;;;12.70;;
3050;SDS011;1535;51.098;6.414;2023-03-29T05:54:54;13.90;;;12.80;;
3050;SDS011;1535;51.098;6.414;2023-03-29T05:57:21;16.80;;;15.00;;
3050;SDS011;1535;51.098;6.414;2023-03-29T05:59:48;13.93;;;12.63;;
3050;SDS011;1535;51.098;6.414;2023-03-29T06:02:15;14.67;;;13.27;;
3050;SDS011;1535;51.098;6.414;2023-03-29T06:04:42;13.67;;;12.53;;
3050;SDS011;1535;51.098;6.414;2023-03-29T06:07:09;13.83;;;12.50;;
3050;SDS011;1535;51.098;6.414;2023-03-29T06:09:38;17.70;;;12.50;;
3050;SDS011;1535;51.098;6.414;2023-03-29T06:12:05;13.53;;;12.40;;
3050;SDS011;1535;51.098;6.414;2023-03-29T06:14:32;14.03;;;12.60;;
3050;SDS011;1535;51.098;6.414;2023-03-29T06:16:59;14.57;;;13.27;;
3050;SDS011;1535;51.098;6.414;2023-03-29T06:19:26;14.63;;;13.30;;
3050;SDS011;1535;51.098;6.414;2023-03-29T06:21:53;14.30;;;13.00;;
3050;SDS011;1535;51.098;6.414;2023-03-29T06:24:20;14.67;;;13.43;;
3050;SDS011;1535;51.098;6.414;2023-03-29T06:26:50;14.00;;;12.90;;
3050;SDS011;1535;51.098;6.414;2023-03-29T06:29:17;14.60;;;13.60;;
3050;SDS011;1535;51.098;6.414;2023-03-29T06:31:44;19.47;;;17.60;;
3050;SDS011;1535;51.098;6.414;2023-03-29T06:34:11;18.50;;;17.20;;
3050;SDS011;1535;51.098;6.414;2023-03-29T06:36:38;18.77;;;17.30;;
3050;SDS011;1535;51.098;6.414;2023-03-29T06:39:05;18.33;;;16.83;;
3050;SDS011;1535;51.098;6.414;2023-03-29T06:41:32;18.50;;;16.97;;
3050;SDS011;1535;51.098;6.414;2023-03-29T06:44:00;18.90;;;17.30;;
3050;SDS011;1535;51.098;6.414;2023-03-29T06:46:28;18.07;;;16.50;;
3050;SDS011;1535;51.098;6.414;2023-03-29T06:48:55;18.53;;;16.50;;
3050;SDS011;1535;51.098;6.414;2023-03-29T06:51:22;17.30;;;15.87;;
3050;SDS011;1535;51.098;6.414;2023-03-29T06:53:49;16.87;;;15.40;;
3050;SDS011;1535;51.098;6.414;2023-03-29T06:56:16;16.20;;;14.97;;
3050;SDS011;1535;51.098;6.414;2023-03-29T06:58:42;18.53;;;17.17;;
3050;SDS011;1535;51.098;6.414;2023-03-29T07:01:12;17.60;;;16.50;;
3050;SDS011;1535;51.098;6.414;2023-03-29T07:03:39;18.60;;;17.10;;
3050;SDS011;1535;51.098;6.414;2023-03-29T07:06:07;19.83;;;17.73;;
3050;SDS011;1535;51.098;6.414;2023-03-29T07:08:35;20.83;;;18.90;;
3050;SDS011;1535;51.098;6.414;2023-03-29T07:11:07;19.10;;;17.60;;
3050;SDS011;1535;51.098;6.414;2023-03-29T07:13:36;20.67;;;18.97;;
3050;SDS011;1535;51.098;6.414;2023-03-29T07:16:04;21.00;;;19.40;;
3050;SDS011;1535;51.098;6.414;2023-03-29T07:18:33;21.43;;;19.50;;
3050;SDS011;1535;51.098;6.414;2023-03-29T07:21:00;21.97;;;19.90;;
3050;SDS011;1535;51.098;6.414;2023-03-29T07:23:28;21.33;;;19.80;;
3050;SDS011;1535;51.098;6.414;2023-03-29T07:25:55;20.50;;;19.10;;
3050;SDS011;1535;51.098;6.414;2023-03-29T07:28:23;19.90;;;18.30;;
3050;SDS011;1535;51.098;6.414;2023-03-29T07:30:50;20.30;;;18.43;;
3050;SDS011;1535;51.098;6.414;2023-03-29T07:33:17;18.97;;;17.90;;
3050;SDS011;1535;51.098;6.414;2023-03-29T07:35:46;19.90;;;18.50;;
3050;SDS011;1535;51.098;6.414;2023-03-29T07:38:12;18.70;;;17.60;;
3050;SDS011;1535;51.098;6.414;2023-03-29T07:40:39;19.70;;;17.80;;
3050;SDS011;1535;51.098;6.414;2023-03-29T07:43:06;17.93;;;16.53;;
3050;SDS011;1535;51.098;6.414;2023-03-29T07:48:17;16.67;;;15.57;;
3050;SDS011;1535;51.098;6.414;2023-03-29T07:50:45;15.73;;;14.27;;
3050;SDS011;1535;51.098;6.414;2023-03-29T07:53:13;14.57;;;13.67;;
3050;SDS011;1535;51.098;6.414;2023-03-29T07:55:40;14.23;;;13.23;;
3050;SDS011;1535;51.098;6.414;2023-03-29T07:58:11;19.40;;;13.43;;
3050;SDS011;1535;51.098;6.414;2023-03-29T08:00:38;13.63;;;12.53;;
3050;SDS011;1535;51.098;6.414;2023-03-29T08:03:05;18.87;;;13.63;;
3050;SDS011;1535;51.098;6.414;2023-03-29T08:05:32;14.43;;;13.13;;
3050;SDS011;1535;51.098;6.414;2023-03-29T08:08:00;13.50;;;12.40;;
3050;SDS011;1535;51.098;6.414;2023-03-29T08:10:27;14.00;;;12.60;;
3050;SDS011;1535;51.098;6.414;2023-03-29T08:12:54;13.87;;;12.73;;
3050;SDS011;1535;51.098;6.414;2023-03-29T08:15:22;14.40;;;13.03;;
3050;SDS011;1535;51.098;6.414;2023-03-29T08:17:49;21.40;;;17.53;;
3050;SDS011;1535;51.098;6.414;2023-03-29T08:20:16;14.90;;;13.60;;
3050;SDS011;1535;51.098;6.414;2023-03-29T08:22:43;15.10;;;13.90;;
3050;SDS011;1535;51.098;6.414;2023-03-29T08:25:14;39.90;;;22.40;;
3050;SDS011;1535;51.098;6.414;2023-03-29T08:27:41;26.10;;;17.70;;
3050;SDS011;1535;51.098;6.414;2023-03-29T08:30:08;30.30;;;22.33;;
3050;SDS011;1535;51.098;6.414;2023-03-29T08:32:36;46.90;;;26.27;;
3050;SDS011;1535;51.098;6.414;2023-03-29T08:35:03;41.87;;;28.20;;
3050;SDS011;1535;51.098;6.414;2023-03-29T08:37:31;24.73;;;21.03;;
3050;SDS011;1535;51.098;6.414;2023-03-29T08:39:58;14.80;;;13.27;;
3050;SDS011;1535;51.098;6.414;2023-03-29T08:42:37;14.53;;;13.13;;
3050;SDS011;1535;51.098;6.414;2023-03-29T08:45:18;14.27;;;12.93;;
3050;SDS011;1535;51.098;6.414;2023-03-29T08:47:52;13.53;;;12.53;;
3050;SDS011;1535;51.098;6.414;2023-03-29T08:50:26;13.07;;;12.20;;
3050;SDS011;1535;51.098;6.414;2023-03-29T08:52:59;13.97;;;12.93;;
3050;SDS011;1535;51.098;6.414;2023-03-29T08:55:31;14.37;;;13.00;;
3050;SDS011;1535;51.098;6.414;2023-03-29T08:58:04;13.27;;;12.37;;
3050;SDS011;1535;51.098;6.414;2023-03-29T09:00:34;13.93;;;12.83;;
3050;SDS011;1535;51.098;6.414;2023-03-29T09:03:07;15.50;;;14.30;;
3050;SDS011;1535;51.098;6.414;2023-03-29T09:05:40;14.60;;;13.50;;
3050;SDS011;1535;51.098;6.414;2023-03-29T09:08:11;14.97;;;13.97;;
3050;SDS011;1535;51.098;6.414;2023-03-29T09:10:41;15.47;;;14.47;;
3050;SDS011;1535;51.098;6.414;2023-03-29T09:13:16;15.73;;;14.80;;
3050;SDS011;1535;51.098;6.414;2023-03-29T09:15:51;15.63;;;14.50;;
3050;SDS011;1535;51.098;6.414;2023-03-29T09:18:25;16.53;;;14.83;;
3050;SDS011;1535;51.098;6.414;2023-03-29T09:20:58;16.87;;;15.47;;
3050;SDS011;1535;51.098;6.414;2023-03-29T09:23:47;16.57;;;15.57;;
3050;SDS011;1535;51.098;6.414;2023-03-29T09:26:21;17.17;;;16.00;;
3050;SDS011;1535;51.098;6.414;2023-03-29T09:29:00;17.17;;;15.60;;
3050;SDS011;1535;51.098;6.414;2023-03-29T09:31:35;17.10;;;16.03;;
3050;SDS011;1535;51.098;6.414;2023-03-29T09:34:07;17.90;;;16.70;;
3050;SDS011;1535;51.098;6.414;2023-03-29T09:36:40;16.93;;;15.93;;
3050;SDS011;1535;51.098;6.414;2023-03-29T09:39:15;17.37;;;16.17;;
3050;SDS011;1535;51.098;6.414;2023-03-29T09:41:43;16.97;;;15.90;;
3050;SDS011;1535;51.098;6.414;2023-03-29T09:44:17;16.83;;;15.70;;
3050;SDS011;1535;51.098;6.414;2023-03-29T09:46:49;16.80;;;15.70;;
3050;SDS011;1535;51.098;6.414;2023-03-29T09:49:20;17.40;;;16.10;;
3050;SDS011;1535;51.098;6.414;2023-03-29T09:51:55;16.93;;;15.73;;
3050;SDS011;1535;51.098;6.414;2023-03-29T09:54:27;19.57;;;17.87;;
3050;SDS011;1535;51.098;6.414;2023-03-29T09:56:54;20.17;;;18.37;;
3050;SDS011;1535;51.098;6.414;2023-03-29T09:59:22;17.47;;;16.27;;
3050;SDS011;1535;51.098;6.414;2023-03-29T10:01:49;17.10;;;16.03;;
3050;SDS011;1535;51.098;6.414;2023-03-29T10:04:17;18.30;;;16.80;;
3050;SDS011;1535;51.098;6.414;2023-03-29T10:06:47;16.93;;;15.80;;
3050;SDS011;1535;51.098;6.414;2023-03-29T10:09:18;17.03;;;16.10;;
3050;SDS011;1535;51.098;6.414;2023-03-29T10:11:48;17.50;;;16.20;;
3050;SDS011;1535;51.098;6.414;2023-03-29T10:14:19;17.87;;;16.43;;
3050;SDS011;1535;51.098;6.414;2023-03-29T10:16:56;18.13;;;16.90;;
3050;SDS011;1535;51.098;6.414;2023-03-29T10:19:25;18.43;;;17.07;;
3050;SDS011;1535;51.098;6.414;2023-03-29T10:21:55;18.77;;;17.40;;
3050;SDS011;1535;51.098;6.414;2023-03-29T10:24:25;17.67;;;16.47;;
3050;SDS011;1535;51.098;6.414;2023-03-29T10:26:52;18.00;;;16.70;;
3050;SDS011;1535;51.098;6.414;2023-03-29T10:29:22;18.10;;;16.90;;
3050;SDS011;1535;51.098;6.414;2023-03-29T10:31:50;18.27;;;16.60;;
3050;SDS011;1535;51.098;6.414;2023-03-29T10:34:19;17.97;;;16.83;;
3050;SDS011;1535;51.098;6.414;2023-03-29T10:36:52;17.83;;;16.73;;
3050;SDS011;1535;51.098;6.414;2023-03-29T10:39:25;18.33;;;16.77;;
3050;SDS011;1535;51.098;6.414;2023-03-29T10:41:54;18.00;;;16.70;;
3050;SDS011;1535;51.098;6.414;2023-03-29T10:44:25;18.20;;;16.90;;
3050;SDS011;1535;51.098;6.414;2023-03-29T10:46:54;19.20;;;17.67;;
3050;SDS011;1535;51.098;6.414;2023-03-29T10:49:23;18.50;;;17.10;;
3050;SDS011;1535;51.098;6.414;2023-03-29T10:51:51;18.70;;;17.47;;
3050;SDS011;1535;51.098;6.414;2023-03-29T10:54:19;18.57;;;17.23;;
3050;SDS011;1535;51.098;6.414;2023-03-29T10:56:49;18.10;;;16.97;;
3050;SDS011;1535;51.098;6.414;2023-03-29T10:59:22;19.00;;;17.50;;
3050;SDS011;1535;51.098;6.414;2023-03-29T11:01:56;18.40;;;17.00;;
3050;SDS011;1535;51.098;6.414;2023-03-29T11:04:50;17.60;;;16.47;;
3050;SDS011;1535;51.098;6.414;2023-03-29T11:07:27;17.67;;;16.63;;
3050;SDS011;1535;51.098;6.414;2023-03-29T11:09:59;18.10;;;16.93;;
3050;SDS011;1535;51.098;6.414;2023-03-29T11:12:33;18.53;;;17.00;;
3050;SDS011;1535;51.098;6.414;2023-03-29T11:15:11;17.50;;;16.30;;
3050;SDS011;1535;51.098;6.414;2023-03-29T11:18:04;17.63;;;16.63;;
3050;SDS011;1535;51.098;6.414;2023-03-29T11:20:48;17.47;;;16.27;;
3050;SDS011;1535;51.098;6.414;2023-03-29T11:23:26;18.13;;;17.00;;
3050;SDS011;1535;51.098;6.414;2023-03-29T11:26:04;17.77;;;16.37;;
3050;SDS011;1535;51.098;6.414;2023-03-29T11:28:39;17.90;;;16.80;;
3050;SDS011;1535;51.098;6.414;2023-03-29T11:31:17;17.80;;;16.70;;
3050;SDS011;1535;51.098;6.414;2023-03-29T11:33:55;17.03;;;16.17;;
3050;SDS011;1535;51.098;6.414;2023-03-29T11:36:32;18.03;;;16.83;;
3050;SDS011;1535;51.098;6.414;2023-03-29T11:39:08;18.27;;;16.97;;
3050;SDS011;1535;51.098;6.414;2023-03-29T11:41:42;17.43;;;16.30;;
3050;SDS011;1535;51.098;6.414;2023-03-29T11:44:15;17.80;;;16.80;;
3050;SDS011;1535;51.098;6.414;2023-03-29T11:46:46;17.40;;;16.50;;
3050;SDS011;1535;51.098;6.414;2023-03-29T11:49:20;17.53;;;16.43;;
3050;SDS011;1535;51.098;6.414;2023-03-29T11:51:52;17.80;;;16.60;;
3050;SDS011;1535;51.098;6.414;2023-03-29T11:54:24;18.93;;;17.53;;
3050;SDS011;1535;51.098;6.414;2023-03-29T11:56:56;18.93;;;17.47;;
3050;SDS011;1535;51.098;6.414;2023-03-29T11:59:28;19.07;;;17.87;;
3050;SDS011;1535;51.098;6.414;2023-03-29T12:02:01;18.30;;;17.00;;
3050;SDS011;1535;51.098;6.414;2023-03-29T12:04:31;17.93;;;16.83;;
3050;SDS011;1535;51.098;6.414;2023-03-29T12:07:07;18.77;;;17.23;;
3050;SDS011;1535;51.098;6.414;2023-03-29T12:09:38;18.03;;;16.77;;
3050;SDS011;1535;51.098;6.414;2023-03-29T12:12:11;18.17;;;16.80;;
3050;SDS011;1535;51.098;6.414;2023-03-29T12:14:45;18.20;;;17.10;;
3050;SDS011;1535;51.098;6.414;2023-03-29T12:17:18;18.10;;;16.90;;
3050;SDS011;1535;51.098;6.414;2023-03-29T12:19:54;18.30;;;17.20;;
3050;SDS011;1535;51.098;6.414;2023-03-29T12:22:30;18.10;;;17.00;;
3050;SDS011;1535;51.098;6.414;2023-03-29T12:24:58;17.90;;;16.80;;
3050;SDS011;1535;51.098;6.414;2023-03-29T12:27:28;18.33;;;17.03;;
3050;SDS011;1535;51.098;6.414;2023-03-29T12:30:03;17.70;;;16.70;;
3050;SDS011;1535;51.098;6.414;2023-03-29T12:35:38;19.40;;;17.67;;
3050;SDS011;1535;51.098;6.414;2023-03-29T12:38:18;17.20;;;16.30;;
3050;SDS011;1535;51.098;6.414;2023-03-29T12:40:47;18.40;;;17.20;;
3050;SDS011;1535;51.098;6.414;2023-03-29T12:43:22;18.50;;;17.40;;
3050;SDS011;1535;51.098;6.414;2023-03-29T12:45:51;18.40;;;17.37;;
3050;SDS011;1535;51.098;6.414;2023-03-29T12:48:21;17.60;;;16.60;;
3050;SDS011;1535;51.098;6.414;2023-03-29T12:50:51;17.77;;;16.60;;
3050;SDS011;1535;51.098;6.414;2023-03-29T12:53:23;17.97;;;17.00;;
3050;SDS011;1535;51.098;6.414;2023-03-29T12:55:54;18.47;;;17.43;;
3050;SDS011;1535;51.098;6.414;2023-03-29T12:58:40;16.90;;;16.00;;
3050;SDS011;1535;51.098;6.414;2023-03-29T13:01:26;17.43;;;16.33;;
3050;SDS011;1535;51.098;6.414;2023-03-29T13:03:56;17.20;;;16.30;;
3050;SDS011;1535;51.098;6.414;2023-03-29T13:06:52;17.53;;;16.63;;
3050;SDS011;1535;51.098;6.414;2023-03-29T13:09:28;17.87;;;16.67;;
3050;SDS011;1535;51.098;6.414;2023-03-29T13:12:02;16.73;;;15.83;;
3050;SDS011;1535;51.098;6.414;2023-03-29T13:14:33;17.30;;;16.40;;
3050;SDS011;1535;51.098;6.414;2023-03-29T13:17:03;17.07;;;16.07;;
3050;SDS011;1535;51.098;6.414;2023-03-29T13:19:35;17.40;;;16.40;;
3050;SDS011;1535;51.098;6.414;2023-03-29T13:22:17;16.57;;;15.60;;
3050;SDS011;1535;51.098;6.414;2023-03-29T13:25:01;16.43;;;15.43;;
3050;SDS011;1535;51.098;6.414;2023-03-29T13:27:41;17.00;;;16.00;;
3050;SDS011;1535;51.098;6.414;2023-03-29T13:30:19;17.00;;;16.10;;
3050;SDS011;1535;51.098;6.414;2023-03-29T13:32:58;16.83;;;15.93;;
3050;SDS011;1535;51.098;6.414;2023-03-29T13:35:37;16.53;;;15.63;;
3050;SDS011;1535;51.098;6.414;2023-03-29T13:38:16;17.10;;;16.20;;
3050;SDS011;1535;51.098;6.414;2023-03-29T13:40:55;17.53;;;16.60;;
3050;SDS011;1535;51.098;6.414;2023-03-29T13:43:29;17.20;;;16.20;;
3050;SDS011;1535;51.098;6.414;2023-03-29T13:46:03;17.27;;;16.30;;
3050;SDS011;1535;51.098;6.414;2023-03-29T13:48:31;17.10;;;15.90;;
3050;SDS011;1535;51.098;6.414;2023-03-29T13:51:20;17.30;;;16.30;;
3050;SDS011;1535;51.098;6.414;2023-03-29T13:53:53;17.87;;;16.77;;
3050;SDS011;1535;51.098;6.414;2023-03-29T13:56:27;17.63;;;16.63;;
3050;SDS011;1535;51.098;6.414;2023-03-29T13:58:59;18.80;;;17.30;;
3050;SDS011;1535;51.098;6.414;2023-03-29T14:01:34;18.23;;;16.83;;
3050;SDS011;1535;51.098;6.414;2023-03-29T14:04:09;18.40;;;17.30;;
3050;SDS011;1535;51.098;6.414;2023-03-29T14:06:47;17.53;;;16.60;;
3050;SDS011;1535;51.098;6.414;2023-03-29T14:09:17;18.30;;;17.20;;
3050;SDS011;1535;51.098;6.414;2023-03-29T14:11:48;18.27;;;17.07;;
3050;SDS011;1535;51.098;6.414;2023-03-29T14:14:16;17.57;;;16.57;;
3050;SDS011;1535;51.098;6.414;2023-03-29T14:16:47;17.63;;;16.57;;
3050;SDS011;1535;51.098;6.414;2023-03-29T14:19:15;19.07;;;17.43;;
3050;SDS011;1535;51.098;6.414;2023-03-29T14:21:44;17.57;;;16.37;;
3050;SDS011;1535;51.098;6.414;2023-03-29T14:24:11;17.60;;;16.60;;
3050;SDS011;1535;51.098;6.414;2023-03-29T14:26:45;18.57;;;17.10;;
3050;SDS011;1535;51.098;6.414;2023-03-29T14:29:13;18.57;;;17.47;;
3050;SDS011;1535;51.098;6.414;2023-03-29T14:31:42;18.33;;;17.13;;
3050;SDS011;1535;51.098;6.414;2023-03-29T14:34:11;18.60;;;17.40;;
3050;SDS011;1535;51.098;6.414;2023-03-29T14:36:39;17.03;;;16.13;;
3050;SDS011;1535;51.098;6.414;2023-03-29T14:39:09;17.03;;;16.13;;
3050;SDS011;1535;51.098;6.414;2023-03-29T14:41:39;20.40;;;19.00;;
3050;SDS011;1535;51.098;6.414;2023-03-29T14:44:12;19.77;;;18.37;;
3050;SDS011;1535;51.098;6.414;2023-03-29T14:46:40;19.20;;;18.00;;
3050;SDS011;1535;51.098;6.414;2023-03-29T14:49:11;18.77;;;17.67;;
3050;SDS011;1535;51.098;6.414;2023-03-29T14:51:42;18.50;;;17.50;;
3050;SDS011;1535;51.098;6.414;2023-03-29T14:54:10;18.83;;;17.47;;
3050;SDS011;1535;51.098;6.414;2023-03-29T14:56:44;26.37;;;24.17;;
3050;SDS011;1535;51.098;6.414;2023-03-29T14:59:19;21.63;;;20.20;;
3050;SDS011;1535;51.098;6.414;2023-03-29T15:01:50;19.70;;;18.23;;
3050;SDS011;1535;51.098;6.414;2023-03-29T15:04:17;20.20;;;18.70;;
3050;SDS011;1535;51.098;6.414;2023-03-29T15:06:44;20.57;;;19.17;;
3050;SDS011;1535;51.098;6.414;2023-03-29T15:09:15;25.77;;;23.63;;
3050;SDS011;1535;51.098;6.414;2023-03-29T15:11:49;19.10;;;17.90;;
3050;SDS011;1535;51.098;6.414;2023-03-29T15:14:19;20.47;;;19.17;;